Time;durP1;ratioP1;P1;durP2;ratioP2;P2;SDS_P1;SDS_P2;PMS_P1;PMS_P2;Temp;Humidity;BMP_temperature;BMP_pressure;BME280_temperature;BME280_humidity;BME280_pressure;Samples;Min_cycle;Max_cycle;Signal;HPM_P1;HPM_P2
2023/10/17 00:01:50;;;;;;;5.20;2.97;;;5.80;99.90;;;;;;5073516;28;20663;-87
2023/10/17 00:06:50;;;;;;;3.70;3.30;;;5.70;99.90;;;;;;5074824;28;20311;-86
2023/10/17 00:09:26;;;;;;;4.27;3.57;;;5.80;99.90;;;;;;5073370;28;20627;-87
2023/10/17 00:14:26;;;;;;;4.17;3.70;;;5.80;99.90;;;;;;5075954;28;20248;-86
2023/10/17 00:16:56;;;;;;;4.63;3.80;;;5.70;99.90;;;;;;5077469;28;20210;-87
2023/10/17 00:19:27;;;;;;;4.27;3.50;;;5.70;99.90;;;;;;5077236;28;20362;-87
2023/10/17 00:21:53;;;;;;;4.17;3.40;;;5.80;99.90;;;;;;5077299;28;20208;-86
2023/10/17 00:24:19;;;;;;;3.70;3.30;;;5.80;99.90;;;;;;5077632;28;20177;-88
2023/10/17 00:26:47;;;;;;;3.50;3.00;;;5.80;99.90;;;;;;5077222;28;20181;-87
2023/10/17 00:29:14;;;;;;;5.90;3.80;;;5.70;99.90;;;;;;5077437;28;20176;-88
2023/10/17 00:31:40;;;;;;;4.50;3.07;;;5.70;99.90;;;;;;5077337;28;20165;-86
2023/10/17 00:34:16;;;;;;;3.67;2.83;;;5.60;99.90;;;;;;5077333;28;20181;-87
2023/10/17 00:36:49;;;;;;;3.43;3.10;;;5.70;99.90;;;;;;5077311;28;20176;-87
2023/10/17 00:39:37;;;;;;;5.17;2.90;;;5.70;99.90;;;;;;5077105;28;20180;-87
2023/10/17 00:44:31;;;;;;;6.37;4.20;;;5.60;99.90;;;;;;5078394;28;20669;-88
2023/10/17 00:46:58;;;;;;;5.00;3.97;;;5.60;99.90;;;;;;5077040;28;20532;-87
2023/10/17 00:49:30;;;;;;;5.70;4.20;;;5.60;99.90;;;;;;5076802;28;20191;-87
2023/10/17 00:52:15;;;;;;;4.00;3.50;;;5.60;99.90;;;;;;5076871;28;20177;-85
2023/10/17 00:54:42;;;;;;;4.53;3.50;;;5.60;99.90;;;;;;5076948;28;20169;-88
2023/10/17 00:57:13;;;;;;;6.27;4.20;;;5.70;99.90;;;;;;5077699;28;20257;-87
2023/10/17 00:59:44;;;;;;;5.37;4.33;;;5.80;99.90;;;;;;5076866;28;20185;-87
2023/10/17 01:02:11;;;;;;;5.10;4.40;;;5.70;99.90;;;;;;5076520;28;20205;-87
2023/10/17 01:04:44;;;;;;;5.30;4.33;;;5.70;99.90;;;;;;5076506;28;20188;-87
2023/10/17 01:07:12;;;;;;;6.70;4.37;;;5.70;99.90;;;;;;5076615;28;20267;-87
2023/10/17 01:09:40;;;;;;;9.10;4.70;;;5.80;99.90;;;;;;5076539;28;20524;-87
2023/10/17 01:12:10;;;;;;;5.23;4.30;;;5.80;99.90;;;;;;5076254;28;20177;-87
2023/10/17 01:14:40;;;;;;;6.50;4.57;;;5.80;99.90;;;;;;5077426;28;20165;-87
2023/10/17 01:17:12;;;;;;;8.67;4.67;;;5.90;99.90;;;;;;5076089;28;20189;-87
2023/10/17 01:19:38;;;;;;;15.43;5.20;;;6.00;99.90;;;;;;5076225;28;20229;-87
2023/10/17 01:22:04;;;;;;;18.23;5.37;;;6.00;99.90;;;;;;5077222;28;20216;-87
2023/10/17 01:24:30;;;;;;;18.77;5.57;;;6.00;99.90;;;;;;5076083;28;20173;-87
2023/10/17 01:26:56;;;;;;;14.73;4.93;;;6.00;99.90;;;;;;5074983;28;20177;-87
2023/10/17 01:29:22;;;;;;;9.07;5.00;;;6.00;99.90;;;;;;5076033;28;20210;-88
2023/10/17 01:31:50;;;;;;;11.93;5.17;;;6.10;99.90;;;;;;5075983;28;20177;-87
2023/10/17 01:34:16;;;;;;;35.37;5.93;;;6.10;99.90;;;;;;5075721;28;20595;-86
2023/10/17 01:36:43;;;;;;;27.13;5.73;;;6.10;99.90;;;;;;5075560;28;20264;-87
2023/10/17 01:39:09;;;;;;;16.67;5.30;;;6.10;99.90;;;;;;5075860;28;20239;-88
2023/10/17 01:41:38;;;;;;;27.87;5.33;;;6.20;99.90;;;;;;5075459;28;20273;-88
2023/10/17 01:44:04;;;;;;;33.17;5.40;;;6.20;99.90;;;;;;5075494;28;20208;-87
2023/10/17 01:46:30;;;;;;;23.10;5.73;;;6.20;99.90;;;;;;5075493;28;20181;-87
2023/10/17 01:51:31;;;;;;;31.57;5.90;;;6.20;99.90;;;;;;5309037;22;20263;-88
2023/10/17 01:53:57;;;;;;;24.73;5.23;;;6.10;99.90;;;;;;5076754;28;20185;-86
2023/10/17 01:56:26;;;;;;;28.90;5.10;;;6.10;99.90;;;;;;5076686;28;20607;-89
2023/10/17 01:58:55;;;;;;;11.87;4.87;;;6.00;99.90;;;;;;5075725;28;20183;-88
2023/10/17 02:01:25;;;;;;;35.17;6.33;;;6.00;99.90;;;;;;5075221;28;20291;-87
2023/10/17 02:03:52;;;;;;;21.50;5.63;;;6.00;99.90;;;;;;5075489;28;20248;-87
2023/10/17 02:06:19;;;;;;;16.20;5.20;;;6.00;99.90;;;;;;5075228;28;20181;-87
2023/10/17 02:08:46;;;;;;;11.43;5.50;;;6.10;99.90;;;;;;5075515;28;20272;-87
2023/10/17 02:11:26;;;;;;;13.37;5.47;;;6.10;99.90;;;;;;5075176;28;20181;-87
2023/10/17 02:13:56;;;;;;;18.13;5.97;;;6.10;99.90;;;;;;5076539;28;20196;-87
2023/10/17 02:16:28;;;;;;;11.23;5.43;;;6.00;99.90;;;;;;5076542;28;20503;-86
2023/10/17 02:19:03;;;;;;;19.37;5.30;;;6.10;99.90;;;;;;5075261;28;20184;-88
2023/10/17 02:21:30;;;;;;;26.30;5.93;;;6.00;99.90;;;;;;5063683;28;20185;-86
2023/10/17 02:23:56;;;;;;;14.30;4.93;;;6.00;99.90;;;;;;5055241;28;20315;-87
2023/10/17 02:26:23;;;;;;;10.93;5.03;;;6.00;99.90;;;;;;5055459;28;20224;-87
2023/10/17 02:29:11;;;;;;;19.30;5.10;;;6.00;99.90;;;;;;5055020;28;20186;-87
2023/10/17 02:31:40;;;;;;;6.33;4.00;;;5.90;99.90;;;;;;5055264;28;20627;-87
2023/10/17 02:34:09;;;;;;;13.60;5.20;;;5.90;99.90;;;;;;5055093;28;20270;-87
2023/10/17 02:36:35;;;;;;;15.20;4.40;;;5.90;99.90;;;;;;5054722;28;20186;-87
2023/10/17 02:39:02;;;;;;;19.07;5.20;;;5.90;99.90;;;;;;5054956;28;20223;-87
2023/10/17 02:41:31;;;;;;;13.37;5.13;;;5.80;99.90;;;;;;5054758;28;20189;-88
2023/10/17 02:43:57;;;;;;;14.83;4.83;;;5.80;99.90;;;;;;5054820;28;20170;-86
2023/10/17 02:46:28;;;;;;;11.30;5.00;;;5.70;99.90;;;;;;5054653;28;20181;-86
2023/10/17 02:48:54;;;;;;;14.97;5.10;;;5.70;99.90;;;;;;5056107;28;20192;-87
2023/10/17 02:53:56;;;;;;;15.47;5.80;;;5.70;99.90;;;;;;5075941;28;20169;-87
2023/10/17 02:56:24;;;;;;;14.93;5.20;;;5.70;99.90;;;;;;5074661;28;20181;-88
2023/10/17 02:59:12;;;;;;;31.53;5.50;;;5.70;99.90;;;;;;5075711;28;20176;-87
2023/10/17 03:01:44;;;;;;;27.40;5.63;;;5.60;99.90;;;;;;5074520;28;20177;-88
2023/10/17 03:04:13;;;;;;;15.20;5.30;;;5.60;99.90;;;;;;5074620;28;20208;-87
2023/10/17 03:06:41;;;;;;;12.97;5.27;;;5.60;99.90;;;;;;5074133;28;20183;-87
2023/10/17 03:14:33;;;;;;;28.77;5.10;;;5.70;99.90;;;;;;5075526;28;20488;-87
2023/10/17 03:16:58;;;;;;;23.17;5.10;;;5.70;99.90;;;;;;5074110;28;20168;-87
2023/10/17 03:19:26;;;;;;;22.67;4.43;;;5.80;99.90;;;;;;5074489;28;20506;-87
2023/10/17 03:21:58;;;;;;;24.40;4.40;;;5.80;99.90;;;;;;5059646;28;20685;-88
2023/10/17 03:24:45;;;;;;;15.27;4.30;;;5.70;99.90;;;;;;5054212;28;20267;-87
2023/10/17 03:27:22;;;;;;;17.53;4.30;;;5.70;99.90;;;;;;5054914;28;20182;-88
2023/10/17 03:29:48;;;;;;;22.40;4.03;;;5.60;99.90;;;;;;5054041;28;20185;-87
2023/10/17 03:32:23;;;;;;;14.60;4.20;;;5.70;99.90;;;;;;5054163;28;20810;-88
2023/10/17 03:34:56;;;;;;;32.70;5.20;;;5.60;99.90;;;;;;5055123;28;20165;-87
2023/10/17 03:39:55;;;;;;;32.57;4.10;;;5.60;99.90;;;;;;5055348;28;20174;-87
2023/10/17 03:42:57;;;;;;;28.50;5.03;;;5.50;99.90;;;;;;5053731;28;20205;-88
2023/10/17 03:47:41;;;;;;;62.80;6.10;;;5.40;99.90;;;;;;5055255;28;20170;-88
2023/10/17 03:50:08;;;;;;;27.50;5.50;;;5.50;99.90;;;;;;5052980;28;20324;-88
2023/10/17 03:52:36;;;;;;;42.30;5.87;;;5.40;99.90;;;;;;5053815;28;20174;-87
2023/10/17 03:55:02;;;;;;;55.70;4.80;;;5.40;99.90;;;;;;5070393;28;20184;-88
2023/10/17 03:57:28;;;;;;;96.63;6.83;;;5.40;99.90;;;;;;5070582;28;20667;-88
2023/10/17 03:59:56;;;;;;;118.50;7.67;;;5.40;99.90;;;;;;5070338;28;20207;-87
2023/10/17 04:02:24;;;;;;;113.70;5.97;;;5.40;99.90;;;;;;5070361;28;20224;-88
2023/10/17 04:04:57;;;;;;;14.27;4.23;;;5.30;99.90;;;;;;5070448;28;20181;-87
2023/10/17 04:07:26;;;;;;;55.47;5.73;;;5.30;99.90;;;;;;5070357;28;20265;-89
2023/10/17 04:09:56;;;;;;;20.87;5.17;;;5.30;99.90;;;;;;5070921;28;20174;-89
2023/10/17 04:12:39;;;;;;;73.83;5.97;;;5.40;99.90;;;;;;5070488;28;20166;-91
2023/10/17 04:15:09;;;;;;;84.40;6.53;;;5.30;99.90;;;;;;5070538;28;20170;-91
2023/10/17 04:17:38;;;;;;;10.97;4.67;;;5.30;99.90;;;;;;5070463;28;20177;-89
2023/10/17 04:20:11;;;;;;;88.70;7.03;;;5.30;99.90;;;;;;5070494;28;20237;-90
2023/10/17 04:22:44;;;;;;;89.93;5.90;;;5.20;99.90;;;;;;5070437;28;20206;-91
2023/10/17 04:27:54;;;;;;;68.67;4.87;;;5.20;99.90;;;;;;5054857;28;20673;-87
2023/10/17 04:30:29;;;;;;;22.33;3.60;;;5.10;99.90;;;;;;5069319;28;20625;-87
2023/10/17 04:33:19;;;;;;;42.97;4.37;;;5.00;99.90;;;;;;5058591;28;20176;-88
2023/10/17 04:35:53;;;;;;;17.47;3.93;;;5.00;99.90;;;;;;5074014;28;20268;-88
2023/10/17 04:38:38;;;;;;;36.10;4.13;;;5.00;99.90;;;;;;5072869;28;20260;-89
2023/10/17 04:44:02;;;;;;;16.43;4.23;;;4.90;99.90;;;;;;5074305;28;20206;-88
2023/10/17 04:46:29;;;;;;;22.73;4.37;;;5.00;99.90;;;;;;5073375;28;20199;-87
2023/10/17 04:49:04;;;;;;;17.13;4.37;;;5.00;99.90;;;;;;5073232;28;20531;-87
2023/10/17 04:51:38;;;;;;;40.20;4.50;;;5.00;99.90;;;;;;5073018;28;20224;-88
2023/10/17 04:54:22;;;;;;;28.20;4.50;;;5.00;99.90;;;;;;5073082;28;20604;-88
2023/10/17 04:56:59;;;;;;;17.83;4.80;;;5.00;99.90;;;;;;5073316;28;20173;-88
2023/10/17 06:19:02;;;;;;;54.10;4.23;;;5.10;99.90;;;;;;5057027;28;20165;-89
2023/10/17 06:21:36;;;;;;;39.80;4.60;;;5.00;99.90;;;;;;5067128;28;20188;-90
2023/10/17 06:24:06;;;;;;;8.90;4.90;;;5.10;99.90;;;;;;5075434;28;20226;-90
2023/10/17 06:31:56;;;;;;;35.87;4.70;;;5.20;99.90;;;;;;5076657;28;20648;-90
2023/10/17 06:34:26;;;;;;;36.57;4.47;;;5.20;99.90;;;;;;5075221;28;20173;-90
2023/10/17 06:36:59;;;;;;;29.00;4.00;;;5.10;99.90;;;;;;5075069;28;20176;-90
2023/10/17 06:39:36;;;;;;;34.17;3.33;;;5.10;99.90;;;;;;5075201;28;20169;-90
2023/10/17 06:42:15;;;;;;;23.20;3.50;;;5.20;99.90;;;;;;5074781;28;20304;-89
2023/10/17 06:47:31;;;;;;;22.47;3.30;;;5.20;99.90;;;;;;5076213;28;20172;-88
2023/10/17 06:55:35;;;;;;;56.43;3.07;;;5.30;99.90;;;;;;5056071;28;20168;-90
2023/10/17 06:58:09;;;;;;;27.63;2.53;;;5.30;99.90;;;;;;5054794;28;20162;-90
2023/10/17 07:00:44;;;;;;;22.70;3.10;;;5.30;99.90;;;;;;5054347;28;20169;-88
2023/10/17 07:03:13;;;;;;;24.90;2.60;;;5.20;99.90;;;;;;5055231;28;20197;-90
2023/10/17 07:05:39;;;;;;;12.10;3.20;;;5.20;99.90;;;;;;5053957;28;20517;-87
2023/10/17 07:08:14;;;;;;;16.20;2.17;;;5.30;99.90;;;;;;5054073;28;20181;-87
2023/10/17 07:10:54;;;;;;;35.73;3.13;;;5.30;99.90;;;;;;5054432;28;20165;-88
2023/10/17 07:14:40;;;;;;;9.97;2.30;;;5.20;99.90;;;;;;5063079;28;20181;-86
2023/10/17 07:16:57;;;;;;;14.23;2.30;;;5.30;99.90;;;;;;5066957;28;20178;-87
2023/10/17 07:24:31;;;;;;;6.80;1.90;;;5.40;99.90;;;;;;5074783;28;20218;-88
2023/10/17 07:26:58;;;;;;;5.07;2.07;;;5.40;99.90;;;;;;5073521;28;20276;-88
2023/10/17 07:29:24;;;;;;;3.40;2.00;;;5.60;99.90;;;;;;5073519;28;20502;-88
2023/10/17 07:31:53;;;;;;;3.10;1.90;;;5.60;99.90;;;;;;5073133;28;20180;-86
2023/10/17 07:34:21;;;;;;;25.90;2.67;;;5.60;99.90;;;;;;5073442;28;20184;-88
2023/10/17 07:36:50;;;;;;;8.50;2.70;;;5.70;99.90;;;;;;5073361;28;20177;-88
2023/10/17 07:39:24;;;;;;;3.00;2.60;;;5.80;99.90;;;;;;5074000;28;20192;-89
2023/10/17 07:41:53;;;;;;;16.47;2.77;;;5.80;99.90;;;;;;5074215;28;20181;-88
2023/10/17 07:44:29;;;;;;;4.10;2.47;;;5.90;99.90;;;;;;5074247;28;20205;-88
2023/10/17 07:49:38;;;;;;;27.43;2.90;;;5.90;99.90;;;;;;5075140;28;20256;-88
2023/10/17 07:52:22;;;;;;;30.47;3.30;;;5.90;99.90;;;;;;5073509;28;20541;-88
2023/10/17 07:57:40;;;;;;;32.73;3.10;;;6.00;99.90;;;;;;5075312;28;20506;-88
2023/10/17 08:03:27;;;;;;;22.87;2.90;;;6.10;99.90;;;;;;5050104;28;20269;-89
2023/10/17 08:06:05;;;;;;;19.03;3.03;;;6.10;99.90;;;;;;5053342;28;20177;-87
2023/10/17 08:08:41;;;;;;;11.83;2.67;;;6.10;99.90;;;;;;5053824;28;20181;-91
2023/10/17 08:11:20;;;;;;;16.30;3.17;;;6.20;99.90;;;;;;5054055;28;20514;-91
2023/10/17 08:13:46;;;;;;;19.97;3.17;;;6.20;99.90;;;;;;5053765;28;20178;-89
2023/10/17 08:16:24;;;;;;;16.57;2.60;;;6.30;99.90;;;;;;5054087;28;20609;-92
2023/10/17 08:21:40;;;;;;;2.57;2.23;;;6.30;99.90;;;;;;5055093;28;20173;-93
2023/10/17 08:24:13;;;;;;;7.90;2.33;;;6.40;99.90;;;;;;5070397;28;20181;-92
2023/10/17 08:26:42;;;;;;;43.43;4.27;;;6.50;99.90;;;;;;5054742;28;20255;-94
2023/10/17 08:29:11;;;;;;;44.50;3.73;;;6.40;99.90;;;;;;5053788;28;20526;-94
2023/10/17 08:31:43;;;;;;;55.10;4.33;;;6.40;99.90;;;;;;5058139;28;20186;-92
2023/10/17 08:34:15;;;;;;;42.63;3.57;;;6.50;99.90;;;;;;5073792;28;20176;-92
2023/10/17 08:42:05;;;;;;;7.97;3.50;;;6.50;99.90;;;;;;5078948;28;20576;-94
2023/10/17 08:44:34;;;;;;;5.93;2.80;;;6.50;99.90;;;;;;5077440;28;20287;-92
2023/10/17 08:47:03;;;;;;;12.63;3.10;;;6.50;99.90;;;;;;5076870;28;20178;-90
2023/10/17 08:49:31;;;;;;;36.27;4.30;;;6.60;99.90;;;;;;5076250;28;20213;-89
2023/10/17 08:51:59;;;;;;;10.43;3.40;;;6.70;99.90;;;;;;5076231;28;20232;-89
2023/10/17 08:54:29;;;;;;;23.80;4.60;;;6.70;99.90;;;;;;5076787;28;20235;-89
2023/10/17 08:57:03;;;;;;;13.20;3.77;;;6.70;99.90;;;;;;5077153;28;20200;-88
2023/10/17 09:02:29;;;;;;;23.17;4.20;;;6.80;99.90;;;;;;5077576;28;20540;-89
2023/10/17 09:05:18;;;;;;;11.37;3.77;;;6.80;99.90;;;;;;5075786;28;20181;-89
2023/10/17 09:07:48;;;;;;;11.87;3.90;;;6.80;99.90;;;;;;5076641;28;20597;-88
2023/10/17 09:10:30;;;;;;;10.23;4.13;;;6.90;99.90;;;;;;5076034;28;20222;-88
2023/10/17 09:15:50;;;;;;;11.23;4.67;;;7.00;99.90;;;;;;5077791;28;20169;-88
2023/10/17 09:18:27;;;;;;;20.67;4.50;;;7.20;99.90;;;;;;5076720;28;20207;-88
2023/10/17 09:20:55;;;;;;;5.00;4.00;;;7.20;99.90;;;;;;5077018;28;20257;-87
2023/10/17 09:23:27;;;;;;;4.87;4.37;;;7.30;99.90;;;;;;5075808;28;20205;-85
2023/10/17 09:26:07;;;;;;;7.07;4.23;;;7.30;99.90;;;;;;5075900;28;20165;-86
2023/10/17 09:28:36;;;;;;;7.83;4.47;;;7.30;99.90;;;;;;5075682;28;20173;-87
2023/10/17 09:31:08;;;;;;;9.07;4.40;;;7.30;99.90;;;;;;5075588;28;20294;-91
2023/10/17 09:33:48;;;;;;;7.80;4.70;;;7.20;99.90;;;;;;5056016;28;20626;-87
2023/10/17 09:36:19;;;;;;;10.13;4.90;;;7.30;99.90;;;;;;5055558;28;20173;-88
2023/10/17 09:38:46;;;;;;;6.77;4.40;;;7.50;99.90;;;;;;5055415;28;20177;-86
2023/10/17 09:41:17;;;;;;;7.37;4.63;;;7.60;99.90;;;;;;5055365;28;21062;-88
2023/10/17 09:43:51;;;;;;;8.07;4.83;;;7.50;99.90;;;;;;5055502;28;20659;-87
2023/10/17 09:46:25;;;;;;;7.00;4.90;;;7.50;99.90;;;;;;5055344;28;20272;-86
2023/10/17 09:48:52;;;;;;;8.07;5.13;;;7.60;99.90;;;;;;5055129;28;20816;-86
2023/10/17 09:51:22;;;;;;;8.23;5.23;;;7.70;99.90;;;;;;5054415;28;20233;-85
2023/10/17 09:53:58;;;;;;;6.23;5.20;;;7.70;99.90;;;;;;5055193;28;20182;-87
2023/10/17 09:56:32;;;;;;;9.17;5.53;;;7.70;99.90;;;;;;5055131;28;20185;-88
2023/10/17 09:59:03;;;;;;;7.70;5.53;;;7.90;99.90;;;;;;5055101;28;20170;-88
2023/10/17 10:01:31;;;;;;;8.43;5.87;;;8.00;99.90;;;;;;5058459;28;20617;-88
2023/10/17 10:04:01;;;;;;;6.77;5.47;;;8.20;99.90;;;;;;5075027;28;20682;-85
2023/10/17 10:06:32;;;;;;;8.90;5.43;;;8.20;99.90;;;;;;5074742;28;20188;-87
2023/10/17 10:09:13;;;;;;;7.93;5.77;;;8.20;99.90;;;;;;5076291;28;20336;-86
2023/10/17 10:11:48;;;;;;;9.90;6.33;;;8.30;99.90;;;;;;5076059;28;20199;-87
2023/10/17 10:14:23;;;;;;;9.33;6.00;;;8.50;99.90;;;;;;5075131;28;20187;-88
2023/10/17 10:16:54;;;;;;;7.57;5.47;;;8.60;99.90;;;;;;5074898;28;20702;-87
2023/10/17 10:19:23;;;;;;;8.87;5.77;;;8.80;99.90;;;;;;5074844;28;20170;-87
2023/10/17 10:21:56;;;;;;;6.45;5.47;;;8.90;99.90;;;;;;5074547;28;20520;-88
2023/10/17 10:24:29;;;;;;;8.77;4.93;;;9.00;99.90;;;;;;5075118;28;20177;-88
2023/10/17 10:27:29;;;;;;;7.22;5.47;;;9.00;99.90;;;;;;5075135;28;20169;-87
2023/10/17 10:30:31;;;;;;;7.43;5.10;;;9.00;99.90;;;;;;5031197;28;20188;-88
2023/10/17 10:32:58;;;;;;;9.27;6.80;;;9.00;99.90;;;;;;5074985;28;20180;-87
2023/10/17 10:35:32;;;;;;;8.40;7.13;;;9.10;99.90;;;;;;5075752;28;20677;-88
2023/10/17 10:37:59;;;;;;;11.35;8.07;;;9.10;99.90;;;;;;5076137;28;20165;-87
2023/10/17 10:40:32;;;;;;;11.27;8.05;;;9.20;99.90;;;;;;5075966;28;20389;-89
2023/10/17 10:43:01;;;;;;;10.48;8.98;;;9.20;99.90;;;;;;5075111;28;20205;-88
2023/10/17 10:45:50;;;;;;;11.55;9.15;;;9.20;99.90;;;;;;5075663;28;20272;-89
2023/10/17 10:48:17;;;;;;;11.35;8.63;;;9.30;99.90;;;;;;5075485;28;20177;-88
2023/10/17 10:50:46;;;;;;;15.55;10.40;;;9.30;99.90;;;;;;5075831;28;20295;-87
2023/10/17 10:53:20;;;;;;;12.73;10.32;;;9.30;99.90;;;;;;5075844;28;20190;-87
2023/10/17 10:55:56;;;;;;;14.90;11.52;;;9.40;99.90;;;;;;5076833;28;20173;-88
2023/10/17 10:58:25;;;;;;;15.57;12.95;;;9.50;99.90;;;;;;5079962;28;20189;-87
2023/10/17 11:00:54;;;;;;;12.98;10.90;;;9.50;99.90;;;;;;5078942;28;20173;-87
2023/10/17 11:03:21;;;;;;;11.45;9.77;;;9.70;99.90;;;;;;5065974;28;20237;-87
2023/10/17 11:05:53;;;;;;;10.15;8.80;;;9.80;99.90;;;;;;5067609;28;20177;-88
2023/10/17 11:08:22;;;;;;;9.70;8.32;;;9.80;99.90;;;;;;5065607;28;20253;-85
2023/10/17 11:10:49;;;;;;;10.63;7.78;;;9.90;99.90;;;;;;5065046;28;20201;-87
2023/10/17 11:13:19;;;;;;;8.05;7.25;;;9.90;99.90;;;;;;5064892;28;20204;-86
2023/10/17 11:15:46;;;;;;;9.38;7.85;;;10.00;99.90;;;;;;5065222;28;20163;-92
2023/10/17 11:18:15;;;;;;;9.95;6.30;;;10.30;99.90;;;;;;5062131;28;20208;-88
2023/10/17 11:20:41;;;;;;;7.07;6.38;;;10.40;99.90;;;;;;5059773;28;20236;-88
2023/10/17 11:23:13;;;;;;;9.70;6.47;;;10.30;99.90;;;;;;5062837;28;20208;-86
2023/10/17 11:25:45;;;;;;;8.43;6.22;;;10.20;99.90;;;;;;5061475;28;20217;-88
2023/10/17 11:28:16;;;;;;;9.13;5.45;;;10.20;99.90;;;;;;5061797;28;20204;-88
2023/10/17 11:30:42;;;;;;;9.13;5.32;;;10.20;99.90;;;;;;5065943;28;20178;-87
2023/10/17 11:33:13;;;;;;;9.15;6.85;;;10.10;99.90;;;;;;5063718;28;20258;-88
2023/10/17 11:36:02;;;;;;;6.00;5.38;;;10.10;99.90;;;;;;5081409;28;20599;-88
2023/10/17 11:38:35;;;;;;;9.52;7.00;;;10.10;99.90;;;;;;5066673;28;20199;-88
2023/10/17 11:41:03;;;;;;;7.07;5.70;;;10.00;99.90;;;;;;5079506;28;20248;-87
2023/10/17 11:43:42;;;;;;;7.35;5.85;;;10.00;99.90;;;;;;5081102;28;20225;-91
2023/10/17 11:46:14;;;;;;;6.75;5.82;;;10.00;99.90;;;;;;5064939;28;20183;-87
2023/10/17 11:48:44;;;;;;;7.03;5.55;;;10.00;99.90;;;;;;5080411;28;20173;-87
2023/10/17 11:51:18;;;;;;;6.32;5.50;;;10.00;99.90;;;;;;5082286;28;20318;-87
2023/10/17 11:54:05;;;;;;;5.80;5.15;;;10.00;99.90;;;;;;5080943;28;20227;-87
2023/10/17 11:56:39;;;;;;;7.80;5.93;;;9.90;99.90;;;;;;5083771;28;20218;-87
2023/10/17 11:59:12;;;;;;;7.93;7.05;;;9.90;99.90;;;;;;5085936;28;20171;-87
2023/10/17 12:01:38;;;;;;;7.78;6.78;;;9.80;99.90;;;;;;5086736;28;20196;-88
2023/10/17 12:04:08;;;;;;;8.40;6.28;;;9.80;99.90;;;;;;5082167;28;20776;-87
2023/10/17 12:06:36;;;;;;;8.48;6.45;;;9.80;99.90;;;;;;5084860;28;20177;-86
2023/10/17 12:09:17;;;;;;;9.88;7.80;;;9.80;99.90;;;;;;5082254;28;20180;-87
2023/10/17 12:11:48;;;;;;;8.82;6.95;;;9.80;99.90;;;;;;5086713;28;20161;-87
2023/10/17 12:14:20;;;;;;;8.95;6.38;;;9.80;99.90;;;;;;5084472;28;20177;-88
2023/10/17 12:16:54;;;;;;;7.60;5.82;;;9.90;99.90;;;;;;5082089;28;20213;-88
2023/10/17 12:19:26;;;;;;;4.38;2.72;;;9.80;99.90;;;;;;5085207;28;20157;-86
2023/10/17 12:22:00;;;;;;;4.13;2.42;;;9.80;99.90;;;;;;5083162;28;20173;-87
2023/10/17 12:24:34;;;;;;;4.63;3.50;;;9.80;99.90;;;;;;5086038;28;20252;-87
2023/10/17 12:27:07;;;;;;;4.32;3.15;;;9.80;99.90;;;;;;5083051;28;20191;-87
2023/10/17 12:29:34;;;;;;;4.88;3.60;;;9.80;99.90;;;;;;5082005;28;20183;-87
2023/10/17 12:32:01;;;;;;;7.20;4.30;;;9.80;99.90;;;;;;5082297;28;20188;-87
2023/10/17 12:34:28;;;;;;;7.43;3.80;;;9.80;99.90;;;;;;5079003;28;20215;-87
2023/10/17 12:36:56;;;;;;;5.10;3.70;;;9.80;99.90;;;;;;5065826;28;20178;-87
2023/10/17 12:39:21;;;;;;;5.00;3.47;;;9.70;99.90;;;;;;5058765;28;20257;-88
2023/10/17 12:41:48;;;;;;;4.95;3.42;;;9.70;99.90;;;;;;5057585;28;20576;-87
2023/10/17 12:44:18;;;;;;;5.88;3.30;;;9.90;99.90;;;;;;5059074;28;20281;-87
2023/10/17 12:46:46;;;;;;;4.22;3.08;;;10.10;99.90;;;;;;5057263;28;20205;-84
2023/10/17 12:49:12;;;;;;;4.50;2.50;;;10.30;99.90;;;;;;5057300;28;20515;-87
2023/10/17 12:51:38;;;;;;;5.45;2.63;;;10.50;99.90;;;;;;5056813;28;20249;-85
2023/10/17 12:54:07;;;;;;;4.50;1.60;;;10.80;99.90;;;;;;5057144;28;20613;-84
2023/10/17 12:56:36;;;;;;;4.20;1.58;;;10.80;99.90;;;;;;5067807;28;20188;-87
2023/10/17 12:59:12;;;;;;;2.03;1.00;;;11.00;99.90;;;;;;5076368;28;20526;-86
2023/10/17 13:01:38;;;;;;;2.25;0.80;;;11.00;99.90;;;;;;5076097;28;20284;-87
2023/10/17 13:04:04;;;;;;;1.83;0.90;;;11.10;99.90;;;;;;5077152;28;20286;-87
2023/10/17 13:06:31;;;;;;;2.30;0.95;;;11.00;99.90;;;;;;5075996;28;20201;-86
2023/10/17 13:09:00;;;;;;;2.15;1.08;;;10.80;99.90;;;;;;5076341;28;20224;-87
2023/10/17 13:11:27;;;;;;;1.25;0.85;;;10.70;99.90;;;;;;5075965;28;20173;-87
2023/10/17 13:13:53;;;;;;;1.55;1.30;;;10.60;99.90;;;;;;5078860;28;20180;-87
2023/10/17 13:16:21;;;;;;;2.17;1.40;;;10.70;99.90;;;;;;5081184;28;20379;-87
2023/10/17 13:18:48;;;;;;;2.03;1.63;;;10.70;99.90;;;;;;5074669;28;20178;-87
2023/10/17 13:21:14;;;;;;;2.58;1.40;;;10.70;99.90;;;;;;5076193;28;20268;-87
2023/10/17 13:23:40;;;;;;;1.35;1.20;;;10.60;99.90;;;;;;5075372;28;20201;-87
2023/10/17 13:26:13;;;;;;;1.38;1.23;;;10.50;99.90;;;;;;5059949;28;20600;-88
2023/10/17 13:28:41;;;;;;;2.33;1.30;;;10.30;99.90;;;;;;5068610;28;20504;-88
2023/10/17 13:31:11;;;;;;;5.45;1.50;;;10.20;99.90;;;;;;5076860;28;20475;-87
2023/10/17 13:33:38;;;;;;;3.78;1.60;;;10.10;99.90;;;;;;5073786;28;20189;-87
2023/10/17 13:36:11;;;;;;;2.67;1.63;;;10.00;99.90;;;;;;5057283;28;20185;-88
2023/10/17 13:38:43;;;;;;;3.20;1.50;;;10.00;99.90;;;;;;5075890;28;20177;-87
2023/10/17 13:41:09;;;;;;;3.72;1.77;;;9.90;99.90;;;;;;5078429;28;20172;-88
2023/10/17 13:43:38;;;;;;;2.97;1.70;;;9.90;99.90;;;;;;5077047;28;20523;-87
2023/10/17 13:46:16;;;;;;;3.20;1.70;;;9.90;99.90;;;;;;5076707;28;20615;-88
2023/10/17 13:48:48;;;;;;;2.55;1.80;;;9.90;99.90;;;;;;5075575;28;20185;-87
2023/10/17 13:51:16;;;;;;;3.97;2.10;;;9.80;99.90;;;;;;5076169;28;20227;-88
2023/10/17 13:53:44;;;;;;;4.45;2.10;;;9.80;99.90;;;;;;5076339;28;20212;-88
2023/10/17 13:56:14;;;;;;;2.78;1.85;;;9.80;99.90;;;;;;5075713;28;20644;-87
2023/10/17 13:58:41;;;;;;;2.88;1.83;;;9.80;99.90;;;;;;5075439;28;20177;-87
2023/10/17 14:03:56;;;;;;;2.28;1.77;;;9.80;99.90;;;;;;5076875;28;20212;-87
2023/10/17 14:06:34;;;;;;;2.33;1.77;;;9.80;99.90;;;;;;5058856;28;20177;-87
2023/10/17 14:09:01;;;;;;;2.95;2.10;;;9.80;99.90;;;;;;5075675;28;20627;-87
2023/10/17 14:11:26;;;;;;;3.83;2.30;;;9.80;99.90;;;;;;5075627;28;20588;-87
2023/10/17 14:13:54;;;;;;;2.33;1.98;;;9.70;99.90;;;;;;5075022;28;20274;-88
2023/10/17 14:16:22;;;;;;;2.58;2.30;;;9.70;99.90;;;;;;5076766;28;20169;-88
2023/10/17 14:19:03;;;;;;;3.85;2.20;;;9.70;99.90;;;;;;5075568;28;20185;-88
2023/10/17 14:21:37;;;;;;;2.67;1.98;;;9.60;99.90;;;;;;5075727;28;20513;-88
2023/10/17 14:24:07;;;;;;;3.63;1.80;;;9.60;99.90;;;;;;5075898;28;20219;-88
2023/10/17 14:26:33;;;;;;;4.45;1.70;;;9.60;99.90;;;;;;5075842;28;20169;-87
2023/10/17 14:29:00;;;;;;;3.00;1.58;;;9.50;99.90;;;;;;5075763;28;20558;-87
2023/10/17 14:31:29;;;;;;;3.55;1.80;;;9.50;99.90;;;;;;5074917;28;20172;-88
2023/10/17 14:33:55;;;;;;;3.05;1.90;;;9.40;99.90;;;;;;5074224;28;20208;-87
2023/10/17 14:36:21;;;;;;;3.92;1.90;;;9.30;99.90;;;;;;5074880;28;20178;-87
2023/10/17 14:38:48;;;;;;;2.90;1.92;;;9.30;99.90;;;;;;5074143;28;20184;-87
2023/10/17 14:41:14;;;;;;;2.92;1.77;;;9.30;99.90;;;;;;5074713;28;20178;-88
2023/10/17 14:43:46;;;;;;;2.47;1.80;;;9.20;99.90;;;;;;5053374;28;20656;-88
2023/10/17 14:46:14;;;;;;;2.90;1.83;;;9.30;99.90;;;;;;5074418;28;20208;-88
2023/10/17 14:48:40;;;;;;;2.42;1.92;;;9.30;99.90;;;;;;5074311;28;20184;-88
2023/10/17 14:51:07;;;;;;;4.43;2.65;;;9.30;99.90;;;;;;5074928;28;20232;-87
2023/10/17 14:53:33;;;;;;;3.15;2.28;;;9.30;99.90;;;;;;5076405;28;20180;-88
2023/10/17 14:55:59;;;;;;;3.20;2.42;;;9.40;99.90;;;;;;5074400;28;20188;-87
2023/10/17 14:58:25;;;;;;;3.10;2.33;;;9.40;99.90;;;;;;5072273;28;20184;-86
2023/10/17 15:00:55;;;;;;;5.18;2.25;;;9.40;99.90;;;;;;5059418;28;20173;-87
2023/10/17 15:03:21;;;;;;;3.55;1.90;;;9.50;99.90;;;;;;5057380;28;20266;-88
2023/10/17 15:05:47;;;;;;;3.33;2.50;;;9.50;99.90;;;;;;5054146;28;20604;-88
2023/10/17 15:08:14;;;;;;;3.47;2.08;;;9.50;99.90;;;;;;5065875;28;20522;-88
2023/10/17 15:10:40;;;;;;;4.35;2.03;;;9.60;99.90;;;;;;5074034;28;20613;-87
2023/10/17 15:13:09;;;;;;;3.10;2.13;;;9.60;99.90;;;;;;5073703;28;20178;-87
2023/10/17 15:15:36;;;;;;;2.58;2.00;;;9.60;99.90;;;;;;5074066;28;20694;-88
2023/10/17 15:18:04;;;;;;;4.57;3.03;;;9.60;99.90;;;;;;5073825;28;20185;-87
2023/10/17 15:20:30;;;;;;;5.93;3.40;;;9.60;99.90;;;;;;5073802;28;20187;-87
2023/10/17 15:22:58;;;;;;;5.50;3.80;;;9.60;99.90;;;;;;5072628;28;20220;-89
2023/10/17 15:25:23;;;;;;;6.75;4.03;;;9.50;99.90;;;;;;5054153;28;20514;-88
2023/10/17 15:27:50;;;;;;;6.57;3.70;;;9.50;99.90;;;;;;5069331;28;20181;-88
2023/10/17 15:30:18;;;;;;;6.13;3.35;;;9.50;99.90;;;;;;5055107;28;20170;-87
2023/10/17 15:32:45;;;;;;;5.72;3.55;;;9.50;99.90;;;;;;5052293;28;20564;-88
2023/10/17 15:35:14;;;;;;;7.88;3.20;;;9.50;99.90;;;;;;5053229;28;20182;-88
2023/10/17 15:37:48;;;;;;;5.93;2.60;;;9.50;99.90;;;;;;5060581;28;20268;-88
2023/10/17 15:40:16;;;;;;;3.58;2.00;;;9.50;99.90;;;;;;5074638;28;20204;-88
2023/10/17 15:42:46;;;;;;;4.80;2.40;;;9.40;99.90;;;;;;5053023;28;20206;-88